Algoma, WI (54201)

6:26 PM CDT on July 29, 2014 (GMT -0500)
Door County Cherryland (KSUE) Elev 725 ft | 44.84 °N, 87.42 °W | Change Station

Current weather conditions updated 11 minutes ago

Clear
Clear
66 °F
Feels Like 66 °F
N
7
Wind Variable Wind from South

Tomorrow is forecast to be nearly the same temperature as today. Slight chance of a thunderstorm tomorrow night.

Today
High -- | Low -- °F
--% Chance of Precip.
Yesterday
High -- | Low -- °F
Precip. -- in
5:32 AM 8:19 PM
Waxing Crescent, 8% visible
Pressure 29.97 in
Visibility 10.0 miles
Clouds Clear
Dew Point 59 °F
Humidity 78%
Rainfall 0.00 in
Snow Depth Not available.
UV 2 out of 12
Pollen 7.00 out of 12
Air Quality Not available.
Flu Activity Not available.
METAR KSUE 292315Z AUTO 19006KT 10SM CLR 19/15 A2997 RMK AO1

More Conditions Fewer Conditions

Pressure 29.97 in
Visibility 10.0 miles
Clouds Clear
Dew Point 59 °F
Humidity 78%
Rainfall 0.00 in
Snow Depth Not available.
UV 2 out of 12
Pollen 7.00 out of 12
Air Quality Not available.
Flu Activity Not available.
METAR KSUE 292315Z AUTO 19006KT 10SM CLR 19/15 A2997 RMK AO1

More Conditions Fewer Conditions

10-Day Weather Forecast

Almanac

Astronomy

Jul. 29, 2014 Rise Set
Actual Time 5:32 AM CDT 8:19 PM CDT
Civil Twilight 4:58 AM CDT 8:52 PM CDT
Nautical Twilight 4:16 AM CDT 9:35 PM CDT
Astronomical Twilight 3:26 AM CDT 10:24 PM CDT
Moon 8:17 AM CDT 9:21 PM CDT
Length of Visible Light 15h 53m
Length of Day
14h 46m
Tomorrow will be 2m 18s shorter.
Waxing Crescent, 8% of the Moon is Illuminated
Today
Waxing Crescent
Aug 3
First Quarter
Aug 10
Full
Aug 17
Last Quarter
Aug 25
New

Today's Extremes

State Highs State Lows

Community

WunderPhotos

Upload Photos

1,738,911 photos uploaded!

Nearby

Snow Depth

Station Depth Elevation
No new snow has been reported.

Earthquake Activity

City Distance Mag. Time & Date
No recent earthquake activity has been reported nearby.
Minimum magnitude displayed is 2.5.

Coastal Water Temperatures

Place Temperature
No Stations Reporting

Nearby Weather Stations

Station Location Temp. Dew Point Humidity Wind Precip. Elev Updated Type
Leif Everson Observatory, Sturgeon Bay, WI 68.9 °F 61 °F 76% WSW  at  2.0 mph 0.00 in / hr 636 ft 6:22 PM CDT Normal
Kewaunee on Lake Michigan, Kewaunee, WI 65.1 °F 60 °F 83% NW  at  2.3 mph 0.00 in / hr 617 ft 6:26 PM CDT Rapid Fire
7 Miles West of Kewaunee off Hwy 29, Kewaunee, WI 64.9 °F 61 °F 88% South  at  1.0 mph 0.01 in / hr 724 ft 6:26 PM CDT Rapid Fire
MARITIME , Oconto, WI 66 °F - - WSW  at  9 mph 0.00 in / hr 582 ft 5:30 PM CDT MADIS
Nicolet Airfield, Green Bay, WI 65.0 °F 60 °F 85% WNW  at  5.0 mph 0.00 in / hr 791 ft 6:25 PM CDT Rapid Fire
Red Smith Area, Green Bay, WI 65.5 °F 62 °F 88% WSW  at  0.0 mph - / hr 702 ft 6:15 PM CDT Normal

Show More Stations Show Fewer Stations